createdAt,value
2023-05-19T00:02:53.776Z,102082.23
2023-05-19T00:08:03.051Z,102084.06
2023-05-19T00:13:11.381Z,102086.75
2023-05-19T00:18:19.363Z,102085.88
2023-05-19T00:23:27.440Z,102081.69
2023-05-19T00:28:35.742Z,102080.34
2023-05-19T00:33:43.761Z,102076.02
2023-05-19T00:38:52.364Z,102074.33
2023-05-19T00:44:00.904Z,102070.88
2023-05-19T00:49:09.303Z,102071.73
2023-05-19T00:54:17.399Z,102073.23
2023-05-19T00:59:25.481Z,102075.60
2023-05-19T01:04:35.106Z,102077.05
2023-05-19T01:09:43.214Z,102076.77
2023-05-19T01:14:51.339Z,102073.91
2023-05-19T01:20:18.456Z,102077.02
2023-05-19T01:25:44.622Z,102081.13
2023-05-19T01:30:56.619Z,102077.01
2023-05-19T01:36:08.775Z,102079.15
2023-05-19T01:41:17.667Z,102080.52
2023-05-19T01:46:26.125Z,102084.75
2023-05-19T01:51:34.408Z,102091.48
2023-05-19T01:56:59.393Z,102093.37
2023-05-19T02:02:17.425Z,102097.08
2023-05-19T02:07:33.319Z,102094.45
2023-05-19T02:12:42.404Z,102087.30
2023-05-19T02:17:54.507Z,102090.75
2023-05-19T02:23:02.512Z,102090.91
2023-05-19T02:28:10.517Z,102091.67
2023-05-19T02:33:19.533Z,102090.92
2023-05-19T02:38:27.665Z,102089.84
2023-05-19T02:43:35.821Z,102088.45
2023-05-19T02:48:43.929Z,102087.59
2023-05-19T02:53:52.164Z,102089.95
2023-05-19T02:59:00.271Z,102089.67
2023-05-19T03:04:08.353Z,102085.66
2023-05-19T03:09:16.724Z,102083.95
2023-05-19T03:14:25.269Z,102079.94
2023-05-19T03:19:33.791Z,102075.98
2023-05-19T03:24:42.443Z,102071.39
2023-05-19T03:29:51.061Z,102069.82
2023-05-19T03:34:59.173Z,102065.46
2023-05-19T03:40:09.569Z,102064.48
2023-05-19T03:45:17.733Z,102068.34
2023-05-19T03:50:29.248Z,102075.52
2023-05-19T03:55:37.651Z,102076.53
2023-05-19T04:00:45.869Z,102081.29
2023-05-19T04:05:54.196Z,102086.37
2023-05-19T04:11:02.321Z,102081.34
2023-05-19T04:16:11.367Z,102086.73
2023-05-19T04:21:19.427Z,102087.56
2023-05-19T04:26:30.977Z,102087.81
2023-05-19T04:31:41.144Z,102087.42
2023-05-19T04:36:51.656Z,102090.37
2023-05-19T04:42:02.798Z,102089.84
2023-05-19T04:47:12.189Z,102093.30
2023-05-19T04:52:21.978Z,102092.91
2023-05-19T04:57:29.968Z,102099.90
2023-05-19T05:02:38.223Z,102094.24
2023-05-19T05:07:46.752Z,102099.40
2023-05-19T05:12:56.011Z,102100.48
2023-05-19T05:18:05.067Z,102097.79
2023-05-19T05:23:15.420Z,102093.98
2023-05-19T05:28:23.624Z,102094.86
2023-05-19T05:33:31.640Z,102092.23
2023-05-19T05:38:39.647Z,102093.87
2023-05-19T05:43:47.618Z,102095.80
2023-05-19T05:48:56.661Z,102099.70
2023-05-19T05:54:07.409Z,102103.09
2023-05-19T05:59:15.836Z,102097.11
2023-05-19T06:04:25.781Z,102096.98
2023-05-19T06:09:34.183Z,102095.38
2023-05-19T06:14:42.173Z,102097.91
2023-05-19T06:19:50.097Z,102100.86
2023-05-19T06:24:58.290Z,102104.48
2023-05-19T06:30:08.860Z,102101.53
2023-05-19T06:35:17.052Z,102105.45
2023-05-19T06:40:25.107Z,102104.10
2023-05-19T06:45:33.241Z,102102.14
2023-05-19T06:50:41.266Z,102108.28
2023-05-19T06:55:58.859Z,102111.70
2023-05-19T07:01:08.320Z,102114.11
2023-05-19T07:06:16.465Z,102114.15
2023-05-19T07:11:24.471Z,102119.88
2023-05-19T07:16:32.577Z,102118.36
2023-05-19T07:21:40.591Z,102118.89
2023-05-19T07:26:48.659Z,102119.15
2023-05-19T07:31:58.235Z,102116.78
2023-05-19T07:37:06.755Z,102107.30
2023-05-19T07:42:14.931Z,102111.48
2023-05-19T07:47:23.080Z,102116.64
2023-05-19T07:52:31.517Z,102115.42
2023-05-19T07:57:39.485Z,102101.83
2023-05-19T08:02:47.660Z,102103.05
2023-05-19T08:07:55.857Z,102103.35
2023-05-19T08:13:03.851Z,102100.95
2023-05-19T08:18:11.953Z,102102.45
2023-05-19T08:23:20.156Z,102110.67
2023-05-19T08:28:30.396Z,102106.88
2023-05-19T08:33:38.411Z,102106.78
2023-05-19T08:38:46.455Z,102108.79
2023-05-19T08:43:54.688Z,102106.58
2023-05-19T08:49:11.513Z,102101.70
2023-05-19T08:54:20.890Z,102104.64
2023-05-19T08:59:30.344Z,102103.90
2023-05-19T09:04:40.076Z,102098.42
2023-05-19T09:09:48.240Z,102094.83
2023-05-19T09:14:56.784Z,102091.21
2023-05-19T09:20:11.038Z,102096.00
2023-05-19T09:25:23.399Z,102092.14
2023-05-19T09:30:31.944Z,102091.60
2023-05-19T09:35:39.983Z,102090.50
2023-05-19T09:40:49.943Z,102081.81
2023-05-19T09:46:04.827Z,102085.44
2023-05-19T09:51:13.312Z,102086.98
2023-05-19T09:56:23.921Z,102088.10
2023-05-19T10:01:33.890Z,102093.36
2023-05-19T10:06:42.661Z,102089.45
2023-05-19T10:11:51.305Z,102092.08
2023-05-19T10:17:00.488Z,102087.30
2023-05-19T10:22:08.800Z,102078.89
2023-05-19T10:27:18.231Z,102084.81
2023-05-19T10:32:32.241Z,102085.59
2023-05-19T10:37:47.652Z,102087.63
2023-05-19T10:43:09.171Z,102089.55
2023-05-19T10:48:23.185Z,102092.86
2023-05-19T10:53:35.207Z,102088.38
2023-05-19T10:58:52.278Z,102089.63
2023-05-19T11:04:06.135Z,102081.88
2023-05-19T11:09:15.959Z,102082.16
2023-05-19T11:14:27.451Z,102079.55
2023-05-19T11:19:37.325Z,102080.65
2023-05-19T11:24:50.182Z,102075.21
2023-05-19T11:30:00.410Z,102072.00
2023-05-19T11:35:10.388Z,102068.00
2023-05-19T11:40:19.215Z,102063.13
2023-05-19T11:45:28.964Z,102068.27
2023-05-19T11:50:38.497Z,102070.89
2023-05-19T11:55:49.227Z,102067.52
2023-05-19T12:00:58.088Z,102067.54
2023-05-19T12:06:08.542Z,102073.67
2023-05-19T12:11:18.234Z,102070.30
2023-05-19T12:16:33.753Z,102064.58
2023-05-19T12:21:42.340Z,102065.34
2023-05-19T12:26:50.554Z,102069.84
2023-05-19T12:31:59.010Z,102066.94
2023-05-19T12:37:07.316Z,102072.52
2023-05-19T12:42:16.681Z,102075.13
2023-05-19T12:47:30.907Z,102076.52
2023-05-19T12:52:48.242Z,102068.00
2023-05-19T12:57:58.322Z,102060.48
2023-05-19T13:03:08.683Z,102063.53
2023-05-19T13:08:18.254Z,102069.52
2023-05-19T13:13:26.322Z,102068.75
2023-05-19T13:18:36.332Z,102066.15
2023-05-19T13:23:44.374Z,102068.81
2023-05-19T13:28:52.389Z,102069.10
2023-05-19T13:34:00.407Z,102065.31
2023-05-19T13:39:08.424Z,102059.50
2023-05-19T13:44:16.859Z,102055.47
2023-05-19T13:49:24.905Z,102047.87
2023-05-19T13:54:33.937Z,102047.14
2023-05-19T13:59:57.291Z,102041.81
2023-05-19T14:05:22.510Z,102037.87
2023-05-19T14:10:36.423Z,102034.36
2023-05-19T14:16:19.121Z,102042.21
2023-05-19T14:21:32.764Z,102050.27
2023-05-19T14:26:41.836Z,102051.48
2023-05-19T14:31:49.953Z,102049.20
2023-05-19T14:36:58.106Z,102049.89
2023-05-19T14:42:06.490Z,102051.14
2023-05-19T14:47:14.530Z,102056.95
2023-05-19T14:52:22.779Z,102057.00
2023-05-19T14:57:31.051Z,102053.92
2023-05-19T15:02:39.112Z,102058.73
2023-05-19T15:07:48.329Z,102058.90
2023-05-19T15:12:57.613Z,102056.05
2023-05-19T15:18:05.618Z,102060.03
2023-05-19T15:23:13.758Z,102059.47
2023-05-19T15:28:21.909Z,102060.42
2023-05-19T15:33:29.938Z,102063.02
2023-05-19T15:38:39.121Z,102057.48
2023-05-19T15:43:47.458Z,102058.89
2023-05-19T15:48:55.764Z,102056.09
2023-05-19T15:54:03.760Z,102050.91
2023-05-19T15:59:12.163Z,102048.64
2023-05-19T16:04:20.178Z,102052.45
2023-05-19T16:09:28.232Z,102054.25
2023-05-19T16:14:36.967Z,102052.36
2023-05-19T16:19:45.206Z,102056.02
2023-05-19T16:24:53.342Z,102054.41
2023-05-19T16:30:02.872Z,102050.91
2023-05-19T16:35:12.064Z,102049.83
2023-05-19T16:40:20.879Z,102046.24
2023-05-19T16:45:28.875Z,102047.23
2023-05-19T16:50:37.680Z,102040.48
2023-05-19T16:55:46.078Z,102038.14
2023-05-19T17:00:56.313Z,102036.90
2023-05-19T17:06:04.406Z,102029.98
2023-05-19T17:11:13.570Z,102029.30
2023-05-19T17:16:21.571Z,102028.33
2023-05-19T17:21:30.260Z,102022.88
2023-05-19T17:26:38.331Z,102028.06
2023-05-19T17:31:46.431Z,102031.92
2023-05-19T17:36:54.541Z,102033.38
2023-05-19T17:42:02.802Z,102035.71
2023-05-19T17:47:11.384Z,102032.76
2023-05-19T17:52:20.657Z,102032.89
2023-05-19T17:57:31.889Z,102039.64
2023-05-19T18:03:14.013Z,102032.93
2023-05-19T18:08:23.992Z,102038.40
2023-05-19T18:13:32.097Z,102044.58
2023-05-19T18:18:43.664Z,102044.88
2023-05-19T18:23:51.977Z,102046.67
2023-05-19T18:29:02.825Z,102048.77
2023-05-19T18:34:11.014Z,102045.16
2023-05-19T18:39:19.119Z,102049.23
2023-05-19T18:44:27.381Z,102048.09
2023-05-19T18:49:35.575Z,102050.56
2023-05-19T18:54:46.010Z,102054.28
2023-05-19T18:59:54.019Z,102053.48
2023-05-19T19:05:04.085Z,102052.28
2023-05-19T19:10:13.125Z,102054.95
2023-05-19T19:15:21.577Z,102053.44
2023-05-19T19:20:29.868Z,102055.72
2023-05-19T19:25:37.963Z,102056.83
2023-05-19T19:30:47.747Z,102056.29
2023-05-19T19:35:55.871Z,102054.20
2023-05-19T19:41:04.107Z,102054.85
2023-05-19T19:46:12.356Z,102054.83
2023-05-19T19:51:20.732Z,102056.92
2023-05-19T19:56:28.889Z,102063.55
2023-05-19T20:01:37.177Z,102061.02
2023-05-19T20:06:45.236Z,102062.81
2023-05-19T20:11:53.259Z,102059.40
2023-05-19T20:17:01.349Z,102059.00
2023-05-19T20:22:09.495Z,102069.08
2023-05-19T20:27:17.550Z,102071.30
2023-05-19T20:32:25.685Z,102074.95
2023-05-19T20:37:33.734Z,102074.81
2023-05-19T20:42:42.193Z,102074.10
2023-05-19T20:47:50.215Z,102075.44
2023-05-19T20:52:58.269Z,102075.30
2023-05-19T20:58:06.377Z,102071.88
2023-05-19T21:03:14.603Z,102069.98
2023-05-19T21:08:22.675Z,102071.07
2023-05-19T21:13:30.731Z,102066.19
2023-05-19T21:18:38.813Z,102066.20
2023-05-19T21:23:46.872Z,102070.06
2023-05-19T21:28:54.958Z,102078.38
2023-05-19T21:34:03.155Z,102080.41
2023-05-19T21:39:11.170Z,102086.63
2023-05-19T21:44:19.286Z,102087.91
2023-05-19T21:49:27.317Z,102088.73
2023-05-19T21:54:36.199Z,102088.89
2023-05-19T21:59:45.054Z,102084.42
2023-05-19T22:04:53.405Z,102084.23
2023-05-19T22:10:01.796Z,102091.23
2023-05-19T22:15:13.374Z,102089.98
2023-05-19T22:20:21.664Z,102092.89
2023-05-19T22:25:30.162Z,102088.20
2023-05-19T22:30:40.870Z,102084.30
2023-05-19T22:35:49.285Z,102079.29
2023-05-19T22:40:57.347Z,102073.02
2023-05-19T22:46:05.671Z,102068.09
2023-05-19T22:51:14.070Z,102064.67
2023-05-19T22:56:22.736Z,102060.88
2023-05-19T23:01:31.065Z,102056.75
2023-05-19T23:06:39.051Z,102057.95
2023-05-19T23:11:47.431Z,102058.23
2023-05-19T23:16:55.634Z,102056.09
2023-05-19T23:22:03.877Z,102057.84
2023-05-19T23:27:12.169Z,102064.60
2023-05-19T23:32:44.042Z,102063.95
2023-05-19T23:37:55.966Z,102058.70
2023-05-19T23:43:03.958Z,102056.38
2023-05-19T23:48:12.446Z,102053.63
2023-05-19T23:53:20.526Z,102047.63
2023-05-19T23:58:28.505Z,102049.64
